Spring Lake, Louisiana
Current Conditions -  °F | °C
As of 12:56 AM on Wednesday 26 Nov 2014 (Local Time) from KSHV Reporting Station
Scattered Clouds Scattered Clouds  
Wind Chill: 41°   Ceiling: Unl
Heat Index: 45°   Visibility: 10mi
Dew Point: 35°   Wind: 7mph
Humidity: 68%   Direction: 220°SW
Pressure: 30.14"   Gusts: NA
Location:  32.3873°N, 93.7356°W
Report Text: KSHV 260656Z 22006KT 10SM SCT250 07/02 A3014 RMK AO2 SLP204 T00720017
Loading
Personal Weather Stations






























Interactive Weather Map New forecast layout! Learn more

10-Day Weather Forecast

Advertisements
Track Severe Weather on mobile